sensor_id;sensor_type;location;lat;lon;timestamp;P1;durP1;ratioP1;P2;durP2;ratioP2
55455;SDS011;63021;52.836;6.376;2023-08-21T00:01:26;2.58;;;1.10;;
55455;SDS011;63021;52.836;6.376;2023-08-21T00:03:52;3.42;;;1.02;;
55455;SDS011;63021;52.836;6.376;2023-08-21T00:06:17;2.63;;;1.25;;
55455;SDS011;63021;52.836;6.376;2023-08-21T00:08:43;4.68;;;1.30;;
55455;SDS011;63021;52.836;6.376;2023-08-21T00:11:08;3.88;;;1.20;;
55455;SDS011;63021;52.836;6.376;2023-08-21T00:13:34;2.50;;;0.93;;
55455;SDS011;63021;52.836;6.376;2023-08-21T00:15:59;1.00;;;0.90;;
55455;SDS011;63021;52.836;6.376;2023-08-21T00:18:24;1.17;;;0.90;;
55455;SDS011;63021;52.836;6.376;2023-08-21T00:20:50;0.90;;;0.90;;
55455;SDS011;63021;52.836;6.376;2023-08-21T00:23:15;1.70;;;0.93;;
55455;SDS011;63021;52.836;6.376;2023-08-21T00:25:45;2.55;;;1.13;;
55455;SDS011;63021;52.836;6.376;2023-08-21T00:28:12;4.88;;;1.40;;
55455;SDS011;63021;52.836;6.376;2023-08-21T00:30:38;1.73;;;1.38;;
55455;SDS011;63021;52.836;6.376;2023-08-21T00:33:03;2.47;;;1.55;;
55455;SDS011;63021;52.836;6.376;2023-08-21T00:35:29;4.55;;;1.88;;
55455;SDS011;63021;52.836;6.376;2023-08-21T00:37:54;2.13;;;1.60;;
55455;SDS011;63021;52.836;6.376;2023-08-21T00:40:20;1.73;;;1.60;;
55455;SDS011;63021;52.836;6.376;2023-08-21T00:42:45;2.63;;;1.73;;
55455;SDS011;63021;52.836;6.376;2023-08-21T00:45:10;4.18;;;1.70;;
55455;SDS011;63021;52.836;6.376;2023-08-21T00:47:36;3.08;;;1.70;;
55455;SDS011;63021;52.836;6.376;2023-08-21T00:50:02;2.97;;;1.95;;
55455;SDS011;63021;52.836;6.376;2023-08-21T00:52:31;1.98;;;1.38;;
55455;SDS011;63021;52.836;6.376;2023-08-21T00:54:57;3.75;;;1.40;;
55455;SDS011;63021;52.836;6.376;2023-08-21T00:57:23;4.57;;;1.48;;
55455;SDS011;63021;52.836;6.376;2023-08-21T00:59:48;3.40;;;1.17;;
55455;SDS011;63021;52.836;6.376;2023-08-21T01:02:14;2.00;;;0.90;;
55455;SDS011;63021;52.836;6.376;2023-08-21T01:04:40;1.20;;;0.98;;
55455;SDS011;63021;52.836;6.376;2023-08-21T01:07:05;0.90;;;0.90;;
55455;SDS011;63021;52.836;6.376;2023-08-21T01:12:30;1.08;;;0.70;;
55455;SDS011;63021;52.836;6.376;2023-08-21T01:15:08;1.33;;;0.90;;
55455;SDS011;63021;52.836;6.376;2023-08-21T01:17:37;1.88;;;1.02;;
55455;SDS011;63021;52.836;6.376;2023-08-21T01:20:03;2.17;;;0.90;;
55455;SDS011;63021;52.836;6.376;2023-08-21T01:22:36;3.70;;;1.10;;
55455;SDS011;63021;52.836;6.376;2023-08-21T01:25:03;3.63;;;1.15;;
55455;SDS011;63021;52.836;6.376;2023-08-21T01:27:30;2.78;;;1.50;;
55455;SDS011;63021;52.836;6.376;2023-08-21T01:29:56;1.17;;;0.93;;
55455;SDS011;63021;52.836;6.376;2023-08-21T01:35:21;1.00;;;0.70;;
55455;SDS011;63021;52.836;6.376;2023-08-21T01:37:47;1.92;;;1.05;;
55455;SDS011;63021;52.836;6.376;2023-08-21T01:40:19;1.17;;;1.08;;
55455;SDS011;63021;52.836;6.376;2023-08-21T01:42:48;1.10;;;1.00;;
55455;SDS011;63021;52.836;6.376;2023-08-21T01:45:13;1.20;;;0.98;;
55455;SDS011;63021;52.836;6.376;2023-08-21T01:47:39;1.50;;;1.08;;
55455;SDS011;63021;52.836;6.376;2023-08-21T01:50:05;1.45;;;0.88;;
55455;SDS011;63021;52.836;6.376;2023-08-21T01:52:31;1.65;;;0.90;;
55455;SDS011;63021;52.836;6.376;2023-08-21T01:54:56;1.73;;;1.17;;
55455;SDS011;63021;52.836;6.376;2023-08-21T01:57:21;2.50;;;1.02;;
55455;SDS011;63021;52.836;6.376;2023-08-21T01:59:48;2.65;;;1.15;;
55455;SDS011;63021;52.836;6.376;2023-08-21T02:02:13;1.10;;;0.98;;
55455;SDS011;63021;52.836;6.376;2023-08-21T02:04:39;1.05;;;1.00;;
55455;SDS011;63021;52.836;6.376;2023-08-21T02:07:04;1.80;;;0.90;;
55455;SDS011;63021;52.836;6.376;2023-08-21T02:09:30;1.58;;;1.08;;
55455;SDS011;63021;52.836;6.376;2023-08-21T02:11:55;0.90;;;0.73;;
55455;SDS011;63021;52.836;6.376;2023-08-21T02:14:21;2.13;;;1.13;;
55455;SDS011;63021;52.836;6.376;2023-08-21T02:16:47;0.88;;;0.63;;
55455;SDS011;63021;52.836;6.376;2023-08-21T02:19:12;1.65;;;1.50;;
55455;SDS011;63021;52.836;6.376;2023-08-21T02:21:38;1.80;;;1.35;;
55455;SDS011;63021;52.836;6.376;2023-08-21T02:24:03;0.80;;;0.80;;
55455;SDS011;63021;52.836;6.376;2023-08-21T02:26:29;0.73;;;0.73;;
55455;SDS011;63021;52.836;6.376;2023-08-21T02:28:54;1.17;;;0.75;;
55455;SDS011;63021;52.836;6.376;2023-08-21T02:31:20;1.60;;;0.93;;
55455;SDS011;63021;52.836;6.376;2023-08-21T02:33:45;3.67;;;0.95;;
55455;SDS011;63021;52.836;6.376;2023-08-21T02:36:11;1.95;;;1.10;;
55455;SDS011;63021;52.836;6.376;2023-08-21T02:38:39;1.15;;;1.00;;
55455;SDS011;63021;52.836;6.376;2023-08-21T02:41:04;0.80;;;0.80;;
55455;SDS011;63021;52.836;6.376;2023-08-21T02:43:30;1.83;;;0.73;;
55455;SDS011;63021;52.836;6.376;2023-08-21T02:45:55;2.25;;;0.57;;
55455;SDS011;63021;52.836;6.376;2023-08-21T02:48:20;1.00;;;0.55;;
55455;SDS011;63021;52.836;6.376;2023-08-21T02:50:46;0.60;;;0.50;;
55455;SDS011;63021;52.836;6.376;2023-08-21T02:53:11;1.35;;;0.52;;
55455;SDS011;63021;52.836;6.376;2023-08-21T02:55:37;0.40;;;0.40;;
55455;SDS011;63021;52.836;6.376;2023-08-21T02:58:02;1.48;;;0.40;;
55455;SDS011;63021;52.836;6.376;2023-08-21T03:00:28;0.30;;;0.30;;
55455;SDS011;63021;52.836;6.376;2023-08-21T03:02:53;1.55;;;0.73;;
55455;SDS011;63021;52.836;6.376;2023-08-21T03:05:18;0.60;;;0.60;;
55455;SDS011;63021;52.836;6.376;2023-08-21T03:07:44;1.55;;;0.70;;
55455;SDS011;63021;52.836;6.376;2023-08-21T03:10:09;0.90;;;0.70;;
55455;SDS011;63021;52.836;6.376;2023-08-21T03:12:35;2.28;;;0.70;;
55455;SDS011;63021;52.836;6.376;2023-08-21T03:15:00;0.50;;;0.50;;
55455;SDS011;63021;52.836;6.376;2023-08-21T03:17:26;1.35;;;0.60;;
55455;SDS011;63021;52.836;6.376;2023-08-21T03:19:51;2.35;;;0.60;;
55455;SDS011;63021;52.836;6.376;2023-08-21T03:22:17;0.60;;;0.55;;
55455;SDS011;63021;52.836;6.376;2023-08-21T03:24:42;3.05;;;1.00;;
55455;SDS011;63021;52.836;6.376;2023-08-21T03:27:07;0.90;;;0.90;;
55455;SDS011;63021;52.836;6.376;2023-08-21T03:29:33;0.88;;;0.85;;
55455;SDS011;63021;52.836;6.376;2023-08-21T03:31:58;3.28;;;1.00;;
55455;SDS011;63021;52.836;6.376;2023-08-21T03:34:24;3.53;;;1.02;;
55455;SDS011;63021;52.836;6.376;2023-08-21T03:36:49;2.95;;;1.40;;
55455;SDS011;63021;52.836;6.376;2023-08-21T03:39:15;2.25;;;1.10;;
55455;SDS011;63021;52.836;6.376;2023-08-21T03:41:40;2.97;;;1.17;;
55455;SDS011;63021;52.836;6.376;2023-08-21T03:44:06;1.50;;;1.40;;
55455;SDS011;63021;52.836;6.376;2023-08-21T03:46:31;2.90;;;1.35;;
55455;SDS011;63021;52.836;6.376;2023-08-21T03:48:56;1.67;;;1.27;;
55455;SDS011;63021;52.836;6.376;2023-08-21T03:51:22;3.25;;;1.52;;
55455;SDS011;63021;52.836;6.376;2023-08-21T03:53:47;4.88;;;2.00;;
55455;SDS011;63021;52.836;6.376;2023-08-21T03:56:14;3.78;;;1.52;;
55455;SDS011;63021;52.836;6.376;2023-08-21T03:58:39;1.50;;;1.27;;
55455;SDS011;63021;52.836;6.376;2023-08-21T04:01:05;2.00;;;0.93;;
55455;SDS011;63021;52.836;6.376;2023-08-21T04:03:30;1.38;;;0.93;;
55455;SDS011;63021;52.836;6.376;2023-08-21T04:05:55;1.23;;;0.82;;
55455;SDS011;63021;52.836;6.376;2023-08-21T04:08:24;3.28;;;0.90;;
55455;SDS011;63021;52.836;6.376;2023-08-21T04:10:49;0.70;;;0.70;;
55455;SDS011;63021;52.836;6.376;2023-08-21T04:13:17;1.08;;;0.68;;
55455;SDS011;63021;52.836;6.376;2023-08-21T04:15:48;3.22;;;1.00;;
55455;SDS011;63021;52.836;6.376;2023-08-21T04:18:14;1.13;;;1.00;;
55455;SDS011;63021;52.836;6.376;2023-08-21T04:20:39;1.02;;;0.90;;
55455;SDS011;63021;52.836;6.376;2023-08-21T04:23:05;2.25;;;0.90;;
55455;SDS011;63021;52.836;6.376;2023-08-21T04:25:30;1.05;;;1.00;;
55455;SDS011;63021;52.836;6.376;2023-08-21T04:27:56;1.17;;;0.90;;
55455;SDS011;63021;52.836;6.376;2023-08-21T04:30:21;1.10;;;1.00;;
55455;SDS011;63021;52.836;6.376;2023-08-21T04:32:47;1.17;;;1.08;;
55455;SDS011;63021;52.836;6.376;2023-08-21T04:35:12;1.60;;;1.50;;
55455;SDS011;63021;52.836;6.376;2023-08-21T04:37:42;1.70;;;0.95;;
55455;SDS011;63021;52.836;6.376;2023-08-21T04:40:09;1.45;;;1.35;;
55455;SDS011;63021;52.836;6.376;2023-08-21T04:42:35;2.67;;;1.60;;
55455;SDS011;63021;52.836;6.376;2023-08-21T04:45:01;3.72;;;0.98;;
55455;SDS011;63021;52.836;6.376;2023-08-21T04:47:27;1.95;;;0.93;;
55455;SDS011;63021;52.836;6.376;2023-08-21T04:49:53;1.73;;;1.00;;
55455;SDS011;63021;52.836;6.376;2023-08-21T04:52:20;5.05;;;1.10;;
55455;SDS011;63021;52.836;6.376;2023-08-21T04:54:46;1.75;;;1.08;;
55455;SDS011;63021;52.836;6.376;2023-08-21T04:57:12;0.95;;;0.90;;
55455;SDS011;63021;52.836;6.376;2023-08-21T04:59:38;3.65;;;1.10;;
55455;SDS011;63021;52.836;6.376;2023-08-21T05:02:04;1.13;;;0.90;;
55455;SDS011;63021;52.836;6.376;2023-08-21T05:04:29;2.85;;;1.13;;
55455;SDS011;63021;52.836;6.376;2023-08-21T05:06:54;1.75;;;0.90;;
55455;SDS011;63021;52.836;6.376;2023-08-21T05:09:20;1.33;;;1.10;;
55455;SDS011;63021;52.836;6.376;2023-08-21T05:11:46;4.90;;;1.60;;
55455;SDS011;63021;52.836;6.376;2023-08-21T05:14:11;3.97;;;1.50;;
55455;SDS011;63021;52.836;6.376;2023-08-21T05:16:36;3.38;;;1.58;;
55455;SDS011;63021;52.836;6.376;2023-08-21T05:19:02;3.42;;;1.40;;
55455;SDS011;63021;52.836;6.376;2023-08-21T05:21:27;2.72;;;1.30;;
55455;SDS011;63021;52.836;6.376;2023-08-21T05:23:53;2.05;;;1.20;;
55455;SDS011;63021;52.836;6.376;2023-08-21T05:26:18;2.05;;;1.35;;
55455;SDS011;63021;52.836;6.376;2023-08-21T05:28:44;3.15;;;1.38;;
55455;SDS011;63021;52.836;6.376;2023-08-21T05:31:09;2.55;;;1.30;;
55455;SDS011;63021;52.836;6.376;2023-08-21T05:33:35;2.60;;;1.23;;
55455;SDS011;63021;52.836;6.376;2023-08-21T05:36:00;5.55;;;1.55;;
55455;SDS011;63021;52.836;6.376;2023-08-21T05:38:26;3.03;;;1.35;;
55455;SDS011;63021;52.836;6.376;2023-08-21T05:40:51;3.40;;;1.05;;
55455;SDS011;63021;52.836;6.376;2023-08-21T05:43:17;2.58;;;1.35;;
55455;SDS011;63021;52.836;6.376;2023-08-21T05:45:42;2.00;;;1.38;;
55455;SDS011;63021;52.836;6.376;2023-08-21T05:48:08;7.22;;;1.52;;
55455;SDS011;63021;52.836;6.376;2023-08-21T05:50:33;3.08;;;0.90;;
55455;SDS011;63021;52.836;6.376;2023-08-21T05:53:02;1.42;;;1.10;;
55455;SDS011;63021;52.836;6.376;2023-08-21T05:55:31;8.38;;;1.60;;
55455;SDS011;63021;52.836;6.376;2023-08-21T05:57:57;4.30;;;1.27;;
55455;SDS011;63021;52.836;6.376;2023-08-21T06:00:23;3.15;;;1.40;;
55455;SDS011;63021;52.836;6.376;2023-08-21T06:02:49;5.43;;;1.45;;
55455;SDS011;63021;52.836;6.376;2023-08-21T06:05:14;1.80;;;1.10;;
55455;SDS011;63021;52.836;6.376;2023-08-21T06:07:40;4.68;;;1.40;;
55455;SDS011;63021;52.836;6.376;2023-08-21T06:10:06;2.53;;;1.40;;
55455;SDS011;63021;52.836;6.376;2023-08-21T06:12:33;3.53;;;1.60;;
55455;SDS011;63021;52.836;6.376;2023-08-21T06:14:59;4.97;;;2.25;;
55455;SDS011;63021;52.836;6.376;2023-08-21T06:17:27;10.82;;;3.05;;
55455;SDS011;63021;52.836;6.376;2023-08-21T06:19:52;6.72;;;3.60;;
55455;SDS011;63021;52.836;6.376;2023-08-21T06:22:18;9.57;;;4.00;;
55455;SDS011;63021;52.836;6.376;2023-08-21T06:24:43;6.32;;;3.45;;
55455;SDS011;63021;52.836;6.376;2023-08-21T06:27:08;6.15;;;3.83;;
55455;SDS011;63021;52.836;6.376;2023-08-21T06:29:34;8.15;;;3.75;;
55455;SDS011;63021;52.836;6.376;2023-08-21T06:32:00;7.45;;;3.92;;
55455;SDS011;63021;52.836;6.376;2023-08-21T06:34:25;11.90;;;3.75;;
55455;SDS011;63021;52.836;6.376;2023-08-21T06:36:50;10.45;;;4.05;;
55455;SDS011;63021;52.836;6.376;2023-08-21T06:39:16;11.43;;;5.00;;
55455;SDS011;63021;52.836;6.376;2023-08-21T06:41:41;8.80;;;3.80;;
55455;SDS011;63021;52.836;6.376;2023-08-21T06:44:07;5.78;;;3.40;;
55455;SDS011;63021;52.836;6.376;2023-08-21T06:46:32;4.30;;;3.10;;
55455;SDS011;63021;52.836;6.376;2023-08-21T06:48:57;5.93;;;2.97;;
55455;SDS011;63021;52.836;6.376;2023-08-21T06:51:24;7.75;;;4.00;;
55455;SDS011;63021;52.836;6.376;2023-08-21T06:53:51;8.45;;;3.17;;
55455;SDS011;63021;52.836;6.376;2023-08-21T06:56:16;9.63;;;3.63;;
55455;SDS011;63021;52.836;6.376;2023-08-21T06:58:42;5.13;;;2.88;;
55455;SDS011;63021;52.836;6.376;2023-08-21T07:01:08;10.88;;;3.05;;
55455;SDS011;63021;52.836;6.376;2023-08-21T07:03:33;7.45;;;2.35;;
55455;SDS011;63021;52.836;6.376;2023-08-21T07:05:59;5.63;;;2.85;;
55455;SDS011;63021;52.836;6.376;2023-08-21T07:08:25;7.78;;;2.90;;
55455;SDS011;63021;52.836;6.376;2023-08-21T07:10:51;8.50;;;2.63;;
55455;SDS011;63021;52.836;6.376;2023-08-21T07:13:18;4.95;;;2.05;;
55455;SDS011;63021;52.836;6.376;2023-08-21T07:15:44;12.77;;;3.28;;
55455;SDS011;63021;52.836;6.376;2023-08-21T07:18:09;3.67;;;1.88;;
55455;SDS011;63021;52.836;6.376;2023-08-21T07:20:35;7.82;;;2.20;;
55455;SDS011;63021;52.836;6.376;2023-08-21T07:23:01;5.38;;;2.03;;
55455;SDS011;63021;52.836;6.376;2023-08-21T07:25:26;2.90;;;1.20;;
55455;SDS011;63021;52.836;6.376;2023-08-21T07:27:53;3.33;;;1.70;;
55455;SDS011;63021;52.836;6.376;2023-08-21T07:30:19;7.95;;;1.85;;
55455;SDS011;63021;52.836;6.376;2023-08-21T07:32:45;5.70;;;1.55;;
55455;SDS011;63021;52.836;6.376;2023-08-21T07:35:14;6.63;;;1.38;;
55455;SDS011;63021;52.836;6.376;2023-08-21T07:37:43;6.22;;;1.58;;
55455;SDS011;63021;52.836;6.376;2023-08-21T07:40:09;3.97;;;1.05;;
55455;SDS011;63021;52.836;6.376;2023-08-21T07:42:34;6.78;;;1.48;;
55455;SDS011;63021;52.836;6.376;2023-08-21T07:45:01;3.75;;;1.10;;
55455;SDS011;63021;52.836;6.376;2023-08-21T07:47:26;5.07;;;1.30;;
55455;SDS011;63021;52.836;6.376;2023-08-21T07:49:52;5.13;;;1.35;;
55455;SDS011;63021;52.836;6.376;2023-08-21T07:52:18;3.38;;;1.45;;
55455;SDS011;63021;52.836;6.376;2023-08-21T07:54:44;6.25;;;1.50;;
55455;SDS011;63021;52.836;6.376;2023-08-21T07:59:39;5.53;;;1.73;;
55455;SDS011;63021;52.836;6.376;2023-08-21T08:02:04;6.60;;;1.58;;
55455;SDS011;63021;52.836;6.376;2023-08-21T08:04:30;3.28;;;1.40;;
55455;SDS011;63021;52.836;6.376;2023-08-21T08:06:55;10.52;;;1.65;;
55455;SDS011;63021;52.836;6.376;2023-08-21T08:09:21;7.15;;;1.55;;
55455;SDS011;63021;52.836;6.376;2023-08-21T08:11:48;4.22;;;1.33;;
55455;SDS011;63021;52.836;6.376;2023-08-21T08:14:14;5.22;;;1.73;;
55455;SDS011;63021;52.836;6.376;2023-08-21T08:16:39;6.78;;;1.88;;
55455;SDS011;63021;52.836;6.376;2023-08-21T08:19:04;3.70;;;1.33;;
55455;SDS011;63021;52.836;6.376;2023-08-21T08:21:30;1.20;;;1.05;;
55455;SDS011;63021;52.836;6.376;2023-08-21T08:23:56;6.63;;;1.48;;
55455;SDS011;63021;52.836;6.376;2023-08-21T08:26:22;5.05;;;1.73;;
55455;SDS011;63021;52.836;6.376;2023-08-21T08:28:47;1.90;;;0.90;;
55455;SDS011;63021;52.836;6.376;2023-08-21T08:31:16;5.30;;;1.50;;
55455;SDS011;63021;52.836;6.376;2023-08-21T08:33:43;3.60;;;1.35;;
55455;SDS011;63021;52.836;6.376;2023-08-21T08:36:08;8.50;;;1.92;;
55455;SDS011;63021;52.836;6.376;2023-08-21T08:38:34;6.18;;;1.52;;
55455;SDS011;63021;52.836;6.376;2023-08-21T08:41:00;3.47;;;1.13;;
55455;SDS011;63021;52.836;6.376;2023-08-21T08:43:27;7.38;;;1.48;;
55455;SDS011;63021;52.836;6.376;2023-08-21T08:45:53;4.55;;;1.35;;
55455;SDS011;63021;52.836;6.376;2023-08-21T08:48:21;7.60;;;1.48;;
55455;SDS011;63021;52.836;6.376;2023-08-21T08:50:47;6.47;;;1.20;;
55455;SDS011;63021;52.836;6.376;2023-08-21T08:53:15;2.47;;;1.33;;
55455;SDS011;63021;52.836;6.376;2023-08-21T08:55:44;3.15;;;1.10;;
55455;SDS011;63021;52.836;6.376;2023-08-21T08:58:10;4.28;;;1.17;;
55455;SDS011;63021;52.836;6.376;2023-08-21T09:00:36;5.63;;;1.52;;
55455;SDS011;63021;52.836;6.376;2023-08-21T09:03:02;3.70;;;1.40;;
55455;SDS011;63021;52.836;6.376;2023-08-21T09:05:28;2.72;;;1.15;;
55455;SDS011;63021;52.836;6.376;2023-08-21T09:08:09;2.85;;;1.42;;
55455;SDS011;63021;52.836;6.376;2023-08-21T09:10:36;4.55;;;1.50;;
55455;SDS011;63021;52.836;6.376;2023-08-21T09:13:37;3.95;;;0.98;;
55455;SDS011;63021;52.836;6.376;2023-08-21T09:15:57;5.68;;;1.33;;
55455;SDS011;63021;52.836;6.376;2023-08-21T09:18:24;3.80;;;1.10;;
55455;SDS011;63021;52.836;6.376;2023-08-21T09:20:49;4.38;;;1.20;;
55455;SDS011;63021;52.836;6.376;2023-08-21T09:23:15;3.15;;;1.40;;
55455;SDS011;63021;52.836;6.376;2023-08-21T09:25:43;3.90;;;1.65;;
55455;SDS011;63021;52.836;6.376;2023-08-21T09:28:12;4.75;;;1.77;;
55455;SDS011;63021;52.836;6.376;2023-08-21T09:33:16;5.03;;;1.38;;
55455;SDS011;63021;52.836;6.376;2023-08-21T09:35:43;2.72;;;1.20;;
55455;SDS011;63021;52.836;6.376;2023-08-21T09:38:09;3.85;;;1.45;;
55455;SDS011;63021;52.836;6.376;2023-08-21T09:40:38;3.85;;;1.15;;
55455;SDS011;63021;52.836;6.376;2023-08-21T09:43:05;5.60;;;1.63;;
55455;SDS011;63021;52.836;6.376;2023-08-21T09:45:31;4.22;;;1.23;;
55455;SDS011;63021;52.836;6.376;2023-08-21T09:47:58;5.50;;;1.65;;
55455;SDS011;63021;52.836;6.376;2023-08-21T09:50:24;5.05;;;1.50;;
55455;SDS011;63021;52.836;6.376;2023-08-21T09:52:51;4.72;;;1.70;;
55455;SDS011;63021;52.836;6.376;2023-08-21T09:55:17;6.22;;;1.45;;
55455;SDS011;63021;52.836;6.376;2023-08-21T09:57:43;7.43;;;2.47;;
55455;SDS011;63021;52.836;6.376;2023-08-21T10:00:09;1.95;;;1.13;;
55455;SDS011;63021;52.836;6.376;2023-08-21T10:02:43;4.72;;;1.33;;
55455;SDS011;63021;52.836;6.376;2023-08-21T10:05:13;5.60;;;1.70;;
55455;SDS011;63021;52.836;6.376;2023-08-21T10:07:40;7.60;;;1.60;;
55455;SDS011;63021;52.836;6.376;2023-08-21T10:10:11;3.90;;;1.48;;
55455;SDS011;63021;52.836;6.376;2023-08-21T10:12:37;5.60;;;2.33;;
55455;SDS011;63021;52.836;6.376;2023-08-21T10:15:03;8.13;;;1.77;;
55455;SDS011;63021;52.836;6.376;2023-08-21T10:17:28;6.88;;;1.73;;
55455;SDS011;63021;52.836;6.376;2023-08-21T10:20:01;13.63;;;1.98;;
55455;SDS011;63021;52.836;6.376;2023-08-21T10:25:19;2.75;;;1.50;;
55455;SDS011;63021;52.836;6.376;2023-08-21T10:27:51;3.75;;;1.75;;
55455;SDS011;63021;52.836;6.376;2023-08-21T10:30:20;4.53;;;1.97;;
55455;SDS011;63021;52.836;6.376;2023-08-21T10:32:48;6.20;;;2.03;;
55455;SDS011;63021;52.836;6.376;2023-08-21T10:35:15;5.38;;;2.22;;
55455;SDS011;63021;52.836;6.376;2023-08-21T10:40:32;7.55;;;1.40;;
55455;SDS011;63021;52.836;6.376;2023-08-21T10:42:59;7.65;;;2.00;;
55455;SDS011;63021;52.836;6.376;2023-08-21T10:45:24;4.45;;;2.38;;
55455;SDS011;63021;52.836;6.376;2023-08-21T10:47:50;7.53;;;2.58;;
55455;SDS011;63021;52.836;6.376;2023-08-21T10:50:15;6.05;;;1.88;;
55455;SDS011;63021;52.836;6.376;2023-08-21T10:52:42;3.67;;;1.58;;
55455;SDS011;63021;52.836;6.376;2023-08-21T10:55:10;3.10;;;1.73;;
55455;SDS011;63021;52.836;6.376;2023-08-21T10:57:37;8.20;;;2.25;;
55455;SDS011;63021;52.836;6.376;2023-08-21T11:02:30;4.45;;;1.58;;
55455;SDS011;63021;52.836;6.376;2023-08-21T11:04:57;7.43;;;2.10;;
55455;SDS011;63021;52.836;6.376;2023-08-21T11:07:23;6.28;;;1.20;;
55455;SDS011;63021;52.836;6.376;2023-08-21T11:09:50;8.38;;;1.88;;
55455;SDS011;63021;52.836;6.376;2023-08-21T11:12:17;5.18;;;1.35;;
55455;SDS011;63021;52.836;6.376;2023-08-21T11:14:44;6.82;;;1.27;;
55455;SDS011;63021;52.836;6.376;2023-08-21T11:17:10;2.95;;;1.02;;
55455;SDS011;63021;52.836;6.376;2023-08-21T11:19:36;4.20;;;1.25;;
55455;SDS011;63021;52.836;6.376;2023-08-21T11:22:02;2.50;;;1.08;;
55455;SDS011;63021;52.836;6.376;2023-08-21T11:24:50;5.45;;;1.48;;
55455;SDS011;63021;52.836;6.376;2023-08-21T11:27:17;5.43;;;1.35;;
55455;SDS011;63021;52.836;6.376;2023-08-21T11:29:47;10.68;;;2.53;;
55455;SDS011;63021;52.836;6.376;2023-08-21T11:32:15;4.50;;;1.15;;
55455;SDS011;63021;52.836;6.376;2023-08-21T11:35:14;4.25;;;1.10;;
55455;SDS011;63021;52.836;6.376;2023-08-21T11:37:33;5.63;;;1.20;;
55455;SDS011;63021;52.836;6.376;2023-08-21T11:39:58;4.15;;;0.85;;
55455;SDS011;63021;52.836;6.376;2023-08-21T11:42:30;3.40;;;1.48;;
55455;SDS011;63021;52.836;6.376;2023-08-21T11:44:57;5.07;;;1.30;;
55455;SDS011;63021;52.836;6.376;2023-08-21T11:47:29;7.50;;;1.10;;
55455;SDS011;63021;52.836;6.376;2023-08-21T11:49:56;3.03;;;0.95;;
55455;SDS011;63021;52.836;6.376;2023-08-21T11:52:29;3.88;;;0.93;;
55455;SDS011;63021;52.836;6.376;2023-08-21T11:54:56;3.63;;;0.90;;
55455;SDS011;63021;52.836;6.376;2023-08-21T11:57:22;3.85;;;1.27;;
55455;SDS011;63021;52.836;6.376;2023-08-21T11:59:51;4.40;;;1.25;;
55455;SDS011;63021;52.836;6.376;2023-08-21T12:02:18;4.43;;;1.00;;
55455;SDS011;63021;52.836;6.376;2023-08-21T12:04:54;4.88;;;1.27;;
55455;SDS011;63021;52.836;6.376;2023-08-21T12:07:26;4.82;;;1.15;;
55455;SDS011;63021;52.836;6.376;2023-08-21T12:09:51;6.43;;;1.25;;
55455;SDS011;63021;52.836;6.376;2023-08-21T12:12:17;5.57;;;0.80;;
55455;SDS011;63021;52.836;6.376;2023-08-21T12:14:43;4.47;;;1.02;;
55455;SDS011;63021;52.836;6.376;2023-08-21T12:17:08;4.82;;;1.38;;
55455;SDS011;63021;52.836;6.376;2023-08-21T12:19:34;6.45;;;1.52;;
55455;SDS011;63021;52.836;6.376;2023-08-21T12:21:59;3.67;;;0.85;;
55455;SDS011;63021;52.836;6.376;2023-08-21T12:24:25;3.25;;;1.40;;
55455;SDS011;63021;52.836;6.376;2023-08-21T12:26:50;2.95;;;0.85;;
55455;SDS011;63021;52.836;6.376;2023-08-21T12:29:16;2.42;;;0.77;;
55455;SDS011;63021;52.836;6.376;2023-08-21T12:31:41;7.63;;;1.73;;
55455;SDS011;63021;52.836;6.376;2023-08-21T12:34:07;3.72;;;1.08;;
55455;SDS011;63021;52.836;6.376;2023-08-21T12:36:35;4.80;;;2.00;;
55455;SDS011;63021;52.836;6.376;2023-08-21T12:39:04;11.63;;;1.87;;
55455;SDS011;63021;52.836;6.376;2023-08-21T12:41:31;6.78;;;1.10;;
55455;SDS011;63021;52.836;6.376;2023-08-21T12:43:58;9.85;;;1.73;;
55455;SDS011;63021;52.836;6.376;2023-08-21T12:46:24;5.05;;;1.48;;
55455;SDS011;63021;52.836;6.376;2023-08-21T12:48:51;7.38;;;1.88;;
55455;SDS011;63021;52.836;6.376;2023-08-21T12:51:17;5.25;;;1.40;;
55455;SDS011;63021;52.836;6.376;2023-08-21T12:53:42;3.67;;;1.13;;
55455;SDS011;63021;52.836;6.376;2023-08-21T12:56:08;8.38;;;1.75;;
55455;SDS011;63021;52.836;6.376;2023-08-21T12:58:33;3.53;;;1.10;;
55455;SDS011;63021;52.836;6.376;2023-08-21T13:00:58;5.43;;;1.42;;
55455;SDS011;63021;52.836;6.376;2023-08-21T13:03:24;3.25;;;1.85;;
55455;SDS011;63021;52.836;6.376;2023-08-21T13:05:49;12.35;;;1.90;;
55455;SDS011;63021;52.836;6.376;2023-08-21T13:08:15;6.88;;;2.13;;
55455;SDS011;63021;52.836;6.376;2023-08-21T13:10:41;5.35;;;1.25;;
55455;SDS011;63021;52.836;6.376;2023-08-21T13:13:07;6.25;;;1.45;;
55455;SDS011;63021;52.836;6.376;2023-08-21T13:15:32;4.65;;;1.60;;
55455;SDS011;63021;52.836;6.376;2023-08-21T13:17:58;2.00;;;1.15;;
55455;SDS011;63021;52.836;6.376;2023-08-21T13:20:23;4.75;;;1.58;;
55455;SDS011;63021;52.836;6.376;2023-08-21T13:22:49;3.17;;;0.88;;
55455;SDS011;63021;52.836;6.376;2023-08-21T13:25:20;4.97;;;1.23;;
55455;SDS011;63021;52.836;6.376;2023-08-21T13:27:47;4.18;;;1.50;;
55455;SDS011;63021;52.836;6.376;2023-08-21T13:30:14;7.30;;;1.77;;
55455;SDS011;63021;52.836;6.376;2023-08-21T13:32:41;5.30;;;1.30;;
55455;SDS011;63021;52.836;6.376;2023-08-21T13:35:09;3.40;;;1.20;;
55455;SDS011;63021;52.836;6.376;2023-08-21T13:37:36;5.32;;;1.35;;
55455;SDS011;63021;52.836;6.376;2023-08-21T13:40:02;8.15;;;1.90;;
55455;SDS011;63021;52.836;6.376;2023-08-21T13:42:36;5.72;;;1.40;;
55455;SDS011;63021;52.836;6.376;2023-08-21T13:45:06;4.95;;;1.58;;
55455;SDS011;63021;52.836;6.376;2023-08-21T13:47:37;4.50;;;1.45;;
55455;SDS011;63021;52.836;6.376;2023-08-21T13:50:26;3.45;;;1.17;;
55455;SDS011;63021;52.836;6.376;2023-08-21T13:52:51;4.32;;;1.20;;
55455;SDS011;63021;52.836;6.376;2023-08-21T13:55:17;9.00;;;2.22;;
55455;SDS011;63021;52.836;6.376;2023-08-21T13:57:42;8.05;;;1.65;;
55455;SDS011;63021;52.836;6.376;2023-08-21T14:00:09;3.83;;;1.20;;
55455;SDS011;63021;52.836;6.376;2023-08-21T14:02:38;5.45;;;1.15;;
55455;SDS011;63021;52.836;6.376;2023-08-21T14:05:05;4.65;;;1.60;;
55455;SDS011;63021;52.836;6.376;2023-08-21T14:07:31;5.05;;;1.10;;
55455;SDS011;63021;52.836;6.376;2023-08-21T14:09:57;3.92;;;1.60;;
55455;SDS011;63021;52.836;6.376;2023-08-21T14:12:23;4.20;;;1.88;;
55455;SDS011;63021;52.836;6.376;2023-08-21T14:14:48;6.13;;;1.20;;
55455;SDS011;63021;52.836;6.376;2023-08-21T14:17:13;3.83;;;1.50;;
55455;SDS011;63021;52.836;6.376;2023-08-21T14:19:39;3.13;;;1.23;;
55455;SDS011;63021;52.836;6.376;2023-08-21T14:22:05;5.43;;;1.10;;
55455;SDS011;63021;52.836;6.376;2023-08-21T14:24:30;4.57;;;1.20;;
55455;SDS011;63021;52.836;6.376;2023-08-21T14:26:58;7.78;;;1.20;;
55455;SDS011;63021;52.836;6.376;2023-08-21T14:29:23;8.07;;;1.33;;
55455;SDS011;63021;52.836;6.376;2023-08-21T14:31:49;4.32;;;1.20;;
55455;SDS011;63021;52.836;6.376;2023-08-21T14:34:18;3.78;;;1.40;;
55455;SDS011;63021;52.836;6.376;2023-08-21T14:36:43;3.90;;;1.08;;
55455;SDS011;63021;52.836;6.376;2023-08-21T14:39:09;10.27;;;1.38;;
55455;SDS011;63021;52.836;6.376;2023-08-21T14:41:37;2.50;;;0.93;;
55455;SDS011;63021;52.836;6.376;2023-08-21T14:44:03;2.72;;;0.95;;
55455;SDS011;63021;52.836;6.376;2023-08-21T14:46:29;3.72;;;0.85;;
55455;SDS011;63021;52.836;6.376;2023-08-21T14:48:54;1.95;;;1.10;;
55455;SDS011;63021;52.836;6.376;2023-08-21T14:51:20;1.90;;;1.00;;
55455;SDS011;63021;52.836;6.376;2023-08-21T14:53:45;3.42;;;0.95;;
55455;SDS011;63021;52.836;6.376;2023-08-21T14:56:10;6.57;;;1.27;;
55455;SDS011;63021;52.836;6.376;2023-08-21T14:58:38;5.38;;;1.55;;
55455;SDS011;63021;52.836;6.376;2023-08-21T15:01:08;2.65;;;1.02;;
55455;SDS011;63021;52.836;6.376;2023-08-21T15:03:35;5.55;;;0.90;;